Bence Gulacsi

Chefscout - Puskas Akademia
11 Mär 2027
Donnerstag
Verarbeitung

Persönlichkeit

Anpassungsfähigkeit (8) Ehrgeiz (3) Kontroverse (9) Loyalität (8) Druck (16) Professionalität (15) Fairness (11) Temperament (4)

Profil

Trainerstil Demokratisch
Lizenz Kontinentale B
Entschlossenheit 4
Menschenführung 6
Motivation 12
Disziplin 12
Arbeitszufriedenheit
50%
Ermüdung
0%
Rolle Chefscout
Gehalt 45.8K p/W
Vertrag 14.03.2030

Leistung

Verhalten Normal
Trainingseffektivität
18%
Spielerentwicklung
55%
Verletzungsprävention
20%
Taktische Umsetzung
35%

Letzte Ereignisse

Spieler begutachtet jetzt
Nahm an einer Scouting-Besprechung teil jetzt
Nahm an einer Scouting-Besprechung teil jetzt
Nahm an einer Scouting-Besprechung teil jetzt
Nahm an einer Scouting-Besprechung teil jetzt
Nahm an einer Scouting-Besprechung teil jetzt
Nahm an einer Scouting-Besprechung teil jetzt
Nahm an einer Scouting-Besprechung teil jetzt

Aktuell beobachtet

97
Spieler Verein Status Fähigkeit Vertrauen Beobachtet Zuletzt beobachtet Letzte Stimme
Tenton Yenne Baltika Aktiv 113 / 110 40% 2 08.03.2027 -
Dominik Fiola Haladas Aktiv 128 / 128 40% 1 08.03.2027 -
Vyacheslav Grulev Nizhniy Novgorod Aktiv 118 / 115 40% 2 06.03.2027 -
Moussa Dembélé CR Belouizdad Aktiv 123 / 135 40% 1 06.03.2027 -
Bandar Yaqoob ES Setif Aktiv 129 / 125 40% 2 05.03.2027 -
José Martínes CSKA 1948 Aktiv 111 / 105 40% 3 05.03.2027 -
Juan Brunetta Tigres Aktiv 152 / 134 40% 2 04.03.2027 -
Enzo Cabrera AE Kition Aktiv 103 / 117 40% 2 04.03.2027 -
Kwadwo Duah Ludogorets Aktiv 130 / 125 40% 1 02.03.2027 -
Billal Messaoudi JS Kabylie Aktiv 108 / 111 40% 1 02.03.2027 -
Everton Bala Levski Aktiv 126 / 129 40% 3 01.03.2027 -
Róbert Polievka MTK Budapest Aktiv 123 / 117 40% 2 01.03.2027 Mehr Infos nötig
Mustapha Sangaré Levski Aktiv 109 / 116 40% 2 28.02.2027 -
Tashreeq Matthews Mamelodi Sundowns Aktiv 120 / 116 40% 1 28.02.2027 -
Ali Youssef Apollon Aktiv 137 / 126 40% 2 27.02.2027 -
Eddy Ozobic Inter Aktiv 97 / 114 40% 1 27.02.2027 -
Samuel Kalu Botev Plovdiv Aktiv 116 / 114 40% 2 26.02.2027 -
Themba Ngcobo SuperSport United Aktiv 107 / 126 40% 2 26.02.2027 -
Gilson Benchimol Akron Aktiv 114 / 115 40% 3 25.02.2027 -
Krisztofer Horváth Ujpest Aktiv 115 / 120 40% 3 25.02.2027 Beobachten
Martin Sekulić Ural Aktiv 102 / 108 40% 1 23.02.2027 -
Jan Hurtado Volos NPS Aktiv 129 / 118 40% 1 21.02.2027 -
Lewis Morgan SuperSport United Aktiv 122 / 120 40% 2 19.02.2027 -
Georgy Melkadze Akhmat Grozny Aktiv 113 / 118 40% 1 18.02.2027 -
Lenny Joseph Ferencvaros Aktiv 112 / 122 40% 1 17.02.2027 -
Brayan Gil Baltika Aktiv 130 / 120 40% 1 17.02.2027 -
Jacques Siwe Rubin Aktiv 125 / 119 40% 1 16.02.2027 -
Berna CSKA 1948 Aktiv 121 / 110 40% 1 16.02.2027 -
Sambou Soumano FC Lorient Aktiv 117 / 124 40% 2 15.02.2027 -
Mikhail Ignatov Sochi Aktiv 118 / 113 40% 2 14.02.2027 -
Mandla Mahlangu Ajax Cape Town Aktiv 99 / 106 40% 1 12.02.2027 -
Etiosa Ighodaro Kaizer Chiefs Aktiv 99 / 106 40% 1 12.02.2027 -
Ádin Molnár MTK Budapest Aktiv 108 / 112 62% 2 11.02.2027 Beobachten
Ammar Ramadan DAC Dunajska Streda Aktiv 135 / 130 40% 2 11.02.2027 -
Yegor Golenkov Rostov Aktiv 121 / 124 40% 2 10.02.2027 -
Haji Wright Coventry City Aktiv 140 / 127 40% 1 08.02.2027 -
Chinedu Geoffrey Krylya Sovetov Aktiv 116 / 112 40% 1 05.02.2027 -
Brayan León Mamelodi Sundowns Aktiv 122 / 117 40% 1 04.02.2027 -
Stanislav Ivanov Arda Aktiv 124 / 121 40% 1 03.02.2027 -
Wesley Pomba Veres Aktiv 106 / 114 40% 1 02.02.2027 -
Eren Aydın Zira Aktiv 98 / 108 40% 1 02.02.2027 -
Agustín Módica Gimnasia y Esgrima Aktiv 117 / 111 40% 1 01.02.2027 -
Nicolás Andereggen Ethnikos Achnas Verloren 125 / 104 40% 1 15.01.2027 -
Mikhail Ignatov Sochi Verloren 124 / 119 40% 1 15.01.2027 -
Caio Vidal Ludogorets Aktiv 122 / 128 40% 3 30.12.2026 -
Williams Manyama SuperSport United Aktiv 129 / 116 40% 2 28.12.2026 -
Sergio Arribas Almería Aktiv 141 / 141 40% 1 28.12.2026 -
Aljoša Matko Ujpest Verloren 118 / 109 40% 5 25.12.2026 Beobachten
Enrico Delprato Parma Aktiv 148 / 131 40% 1 24.12.2026 Mehr Infos nötig
Krisztofer Horváth Ujpest Verloren 107 / 114 40% 1 24.12.2026 Beobachten
Ceyhun Nuriyev Gabala Aktiv 111 / 115 40% 2 23.12.2026 -
Sidiki Chérif Coventry City Aktiv 121 / 129 40% 1 23.12.2026 -
Reda Khadra Qarabag Aktiv 133 / 120 40% 4 22.12.2026 Beobachten
Mduduzi Shabalala Kaizer Chiefs Aktiv 102 / 105 40% 2 22.12.2026 Mehr Infos nötig
Mfundo Vilakazi Kaizer Chiefs Aktiv 115 / 106 40% 1 21.12.2026 -
Yaroslav Gladyshev Dinamo Moscow Aktiv 116 / 127 40% 2 20.12.2026 -
Thabang Matuludi Polokwane City Aktiv 97 / 109 40% 1 19.12.2026 -
Siyanda Ndlovu Bloemfontein Celtic Aktiv 104 / 124 40% 1 19.12.2026 -
Suleiman Camara Slovan Bratislava Aktiv 130 / 118 40% 1 17.12.2026 -
Petar Stanić Ludogorets Aktiv 137 / 134 40% 2 14.12.2026 Mehr Infos nötig
Ronaldo Rostov Aktiv 133 / 120 40% 3 13.12.2026 -
Chiquinho Alverca Aktiv 126 / 123 40% 2 13.12.2026 -
Milán Tóth Vasas Aktiv 116 / 109 40% 3 10.12.2026 -
Faiz Mattoir Septemvri Aktiv 116 / 103 40% 1 10.12.2026 -
Keagan Mothiba SuperSport United Aktiv 104 / 106 40% 4 09.12.2026 -
Marcelo Allende Mamelodi Sundowns Aktiv 135 / 128 40% 2 09.12.2026 Mehr Infos nötig
Mauro Rodrigues Botev Plovdiv Aktiv 121 / 112 40% 1 06.12.2026 -
Marko Brest Olimpija Ljubljana Aktiv 120 / 115 40% 1 02.12.2026 -
Jonás Luna Santa Clara Aktiv 111 / 128 40% 1 30.11.2026 -
Luka Ilić Honved Aktiv 127 / 116 40% 2 29.11.2026 -
Mandla Erasmus SuperSport United Aktiv 117 / 113 40% 2 28.11.2026 -
Martins Júnior Zira Aktiv 128 / 113 40% 2 27.11.2026 -
Ruben van Bommel Ferencvaros Aktiv 140 / 138 40% 3 25.11.2026 -
Aleksa Janković Sumgayit Aktiv 115 / 111 40% 1 25.11.2026 -
Oswin Appollis Orlando Pirates Aktiv 108 / 130 40% 1 24.11.2026 -
José Paradela Cruz Azul Aktiv 152 / 145 40% 1 24.11.2026 -
Adil Taoui Lokomotiv Sofia Aktiv 107 / 108 40% 1 18.11.2026 -
Jack Currie Oxford United Aktiv 127 / 117 40% 2 17.11.2026 -
Ruslan Bezrukov Rubin Aktiv 117 / 115 40% 2 17.11.2026 -
Tshepang Moremi Orlando Pirates Aktiv 101 / 119 40% 2 13.11.2026 -
Krisztian Bese Haladas Aktiv 127 / 120 40% 1 07.11.2026 -
Lautaro Ríos Banfield Aktiv 119 / 122 40% 1 06.11.2026 -
Matías Galarza Talleres Aktiv 124 / 125 40% 1 03.11.2026 -
Marek Sestak FK Senica Aktiv 104 / 119 40% 1 28.10.2026 -
Mariano Bracamonte Deportivo Riestra Aktiv 108 / 113 40% 1 27.10.2026 -
André Luiz Sporting Kansas City Aktiv 143 / 133 40% 1 25.10.2026 -
Arne Maier Ujpest Aktiv 114 / 121 40% 4 23.10.2026 -
Thalente Mbatha Orlando Pirates Aktiv 101 / 108 40% 1 23.10.2026 -
Sinoxolo Kwayiba Chippa United Aktiv 95 / 103 40% 1 21.10.2026 -
Yuber Quiñónes Deportivo Pereira Aktiv 102 / 113 40% 1 21.10.2026 -
Marcos Cuenca Zaragoza Aktiv 101 / 117 40% 1 19.10.2026 -
Julián Palacios Unión de Santa Fe Aktiv 107 / 120 40% 1 14.10.2026 -
Romano Schmid Frosinone Aktiv 143 / 148 40% 1 10.10.2026 -
Dardan Shabanhaxhaj Rubin Aktiv 113 / 110 40% 1 07.10.2026 -
Danijel Petković Liepaja Aktiv 118 / 122 40% 1 03.08.2026 -
Aljaž Ivačič DAC Dunajska Streda Aktiv 116 / 112 40% 1 03.08.2026 -
Federico Viñas Toluca Aktiv 132 / 121 40% 1 02.08.2026 -